地図

経路データ

SID SEASON NUMBER BASIN SUBBASIN NAME ISO_TIME NATURE LAT LON WMO_WIND WMO_PRES WMO_AGENCY TRACK_TYPE DIST2LAND LANDFALL IFLAG USA_AGENCY USA_ATCF_ID USA_LAT USA_LON USA_RECORD USA_STATUS USA_WIND USA_PRES USA_SSHS USA_R34_NE USA_R34_SE USA_R34_SW USA_R34_NW USA_R50_NE USA_R50_SE USA_R50_SW USA_R50_NW USA_R64_NE USA_R64_SE USA_R64_SW USA_R64_NW USA_POCI USA_ROCI USA_RMW USA_EYE TOKYO_LAT TOKYO_LON TOKYO_GRADE TOKYO_WIND TOKYO_PRES TOKYO_R50_DIR TOKYO_R50_LONG TOKYO_R50_SHORT TOKYO_R30_DIR TOKYO_R30_LONG TOKYO_R30_SHORT TOKYO_LAND CMA_LAT CMA_LON CMA_CAT CMA_WIND CMA_PRES HKO_LAT HKO_LON HKO_CAT HKO_WIND HKO_PRES NEWDELHI_LAT NEWDELHI_LON NEWDELHI_GRADE NEWDELHI_WIND NEWDELHI_PRES NEWDELHI_CI NEWDELHI_DP NEWDELHI_POCI REUNION_LAT REUNION_LON REUNION_TYPE REUNION_WIND REUNION_PRES REUNION_TNUM REUNION_CI REUNION_RMW REUNION_R34_NE REUNION_R34_SE REUNION_R34_SW REUNION_R34_NW REUNION_R50_NE REUNION_R50_SE REUNION_R50_SW REUNION_R50_NW REUNION_R64_NE REUNION_R64_SE REUNION_R64_SW REUNION_R64_NW BOM_LAT BOM_LON BOM_TYPE BOM_WIND BOM_PRES BOM_TNUM BOM_CI BOM_RMW BOM_R34_NE BOM_R34_SE BOM_R34_SW BOM_R34_NW BOM_R50_NE BOM_R50_SE BOM_R50_SW BOM_R50_NW BOM_R64_NE BOM_R64_SE BOM_R64_SW BOM_R64_NW BOM_ROCI BOM_POCI BOM_EYE BOM_POS_METHOD BOM_PRES_METHOD NADI_LAT NADI_LON NADI_CAT NADI_WIND NADI_PRES WELLINGTON_LAT WELLINGTON_LON WELLINGTON_WIND WELLINGTON_PRES DS824_LAT DS824_LON DS824_STAGE DS824_WIND DS824_PRES TD9636_LAT TD9636_LON TD9636_STAGE TD9636_WIND TD9636_PRES TD9635_LAT TD9635_LON TD9635_WIND TD9635_PRES TD9635_ROCI NEUMANN_LAT NEUMANN_LON NEUMANN_CLASS NEUMANN_WIND NEUMANN_PRES MLC_LAT MLC_LON MLC_CLASS MLC_WIND MLC_PRES USA_GUST BOM_GUST BOM_GUST_PER REUNION_GUST REUNION_GUST_PER USA_SEAHGT USA_SEARAD_NE USA_SEARAD_SE USA_SEARAD_SW USA_SEARAD_NW STORM_SPEED STORM_DIR
1960146S17153 1960 22 SP EA NOT_NAMED 1960-05-24 12:00:00 TS -16.9000 153.200 main 599 584 O________OO___ jtwc_sh SH241960 -16.9000 153.200 -1 -16.9000 153.200 TC -16.9000 153.200 2 3 211
1960146S17153 1960 22 SP EA NOT_NAMED 1960-05-24 15:00:00 TS -17.0353 153.117 main 584 561 P________PP___ SH241960 -17.0100 153.098 -1 -17.0100 153.098 TC -17.0858 153.155 2 4 206
1960146S17153 1960 22 SP EA NOT_NAMED 1960-05-24 18:00:00 TS -17.2358 153.029 main 561 533 O________OP___ jtwc_sh SH241960 -17.2000 153.000 -1 -17.2000 153.000 TC -17.3073 153.087 2 6 199
1960146S17153 1960 22 SP EA NOT_NAMED 1960-05-24 21:00:00 TS -17.5551 152.930 main 526 492 P________PP___ SH241960 -17.5325 152.907 -1 -17.5325 152.907 TC -17.6002 152.977 2 8 196
1960146S17153 1960 22 SP EA NOT_NAMED 1960-05-25 00:00:00 TS -18.0000 152.800 main 492 446 O________OO___ jtwc_sh SH241960 -18.0000 152.800 -1 -18.0000 152.800 TC -18.0000 152.800 2 10 196
1960146S17153 1960 22 SP EA NOT_NAMED 1960-05-25 03:00:00 TS -18.5512 152.627 main 441 398 P________PP___ SH241960 -18.5625 152.665 -1 -18.5625 152.665 TC -18.5285 152.552 2 12 196
1960146S17153 1960 22 SP EA NOT_NAMED 1960-05-25 06:00:00 TS -19.1842 152.432 main 393 329 O________OP___ jtwc_sh SH241960 -19.2000 152.500 -1 -19.2000 152.500 TC -19.1525 152.297 2 14 197
1960146S17153 1960 22 SP EA NOT_NAMED 1960-05-25 09:00:00 TS -19.8417 152.205 main 329 257 P________PP___ SH241960 -19.8501 152.248 -1 -19.8501 152.248 TC -19.8251 152.118 2 14 193
1960146S17153 1960 22 SP EA NOT_NAMED 1960-05-25 12:00:00 TS -20.5000 152.100 main 257 212 O________OO___ jtwc_sh SH241960 -20.5000 152.100 -1 -20.5000 152.100 TC -20.5000 152.100 2 13 180
1960146S17153 1960 22 SP EA NOT_NAMED 1960-05-25 15:00:00 TS -21.1213 152.199 main 212 193 P________PP___ SH241960 -21.1071 152.173 -1 -21.1071 152.173 TC -21.1497 152.250 2 13 162
1960146S17153 1960 22 SP EA NOT_NAMED 1960-05-25 18:00:00 TS -21.7288 152.527 main 196 191 O________OP___ jtwc_sh SH241960 -21.7000 152.500 -1 -21.7000 152.500 TC -21.7863 152.582 2 15 147
1960146S17153 1960 22 SP EA NOT_NAMED 1960-05-25 21:00:00 TS -22.3513 153.047 main 226 218 P________PP___ SH241960 -22.3369 153.022 -1 -22.3369 153.022 TC -22.3799 153.098 2 17 135
1960146S17153 1960 22 SP EA NOT_NAMED 1960-05-26 00:00:00 TS -22.9000 153.800 main 218 210 O________OO___ jtwc_sh SH241960 -22.9000 153.800 -1 -22.9000 153.800 TC -22.9000 153.800 2 18 120
1960146S17153 1960 22 SP EA NOT_NAMED 1960-05-26 03:00:00 TS -23.2835 154.769 main 226 226 P________PP___ SH241960 -23.2953 154.791 -1 -23.2953 154.791 TC -23.2600 154.725 2 20 110
1960146S17153 1960 22 SP EA NOT_NAMED 1960-05-26 06:00:00 TS -23.5831 155.871 main 295 295 O________OP___ jtwc_sh SH241960 -23.6000 155.900 -1 -23.6000 155.900 TC -23.5493 155.814 2 21 106
1960146S17153 1960 22 SP EA NOT_NAMED 1960-05-26 09:00:00 TS -23.8492 156.965 main 388 384 P________PP___ SH241960 -23.8547 156.974 -1 -23.8547 156.974 TC -23.8381 156.945 2 20 108
1960146S17153 1960 22 SP EA NOT_NAMED 1960-05-26 12:00:00 TS -24.2000 158.000 main 473 473 O________OO___ jtwc_sh SH241960 -24.2000 158.000 -1 -24.2000 158.000 TC -24.2000 158.000 2 21 118
1960146S17153 1960 22 SP EA NOT_NAMED 1960-05-26 15:00:00 TS -24.8027 158.956 main 564 564 P________PP___ SH241960 -24.8049 158.974 -1 -24.8049 158.974 TC -24.7984 158.919 2 21 129
1960146S17153 1960 22 SP EA NOT_NAMED 1960-05-26 18:00:00 TS -25.4905 159.779 main 645 645 O________OP___ jtwc_sh SH241960 -25.5000 159.800 -1 -25.5000 159.800 TC -25.4714 159.736 2 19 135
1960146S17153 1960 22 SP MM NOT_NAMED 1960-05-26 21:00:00 TS -26.1509 160.450 main 698 698 P________PP___ SH241960 -26.1595 160.470 -1 -26.1595 160.470 TC -26.1337 160.410 2 16 140
1960146S17153 1960 22 SP MM NOT_NAMED 1960-05-27 00:00:00 TS -26.7000 160.900 main 717 717 O________OO___ jtwc_sh SH241960 -26.7000 160.900 -1 -26.7000 160.900 TC -26.7000 160.900 2 11 146
1960146S17153 1960 22 SP MM NOT_NAMED 1960-05-27 03:00:00 TS -27.0185 161.108 main 734 734 P________PP___ SH241960 -27.0021 161.076 -1 -27.0021 161.076 TC -27.0513 161.171 2 6 157
1960146S17153 1960 22 SP MM NOT_NAMED 1960-05-27 06:00:00 TS -27.2341 161.153 main 748 748 O________OP___ jtwc_sh SH241960 -27.2000 161.100 -1 -27.2000 161.100 TC -27.3022 161.258 2 5 171
1960146S17153 1960 22 SP MM NOT_NAMED 1960-05-27 09:00:00 TS -27.4674 161.185 main 750 747 P________PP___ SH241960 -27.4500 161.158 -1 -27.4500 161.158 TC -27.5022 161.241 2 5 174
1960146S17153 1960 22 SP MM NOT_NAMED 1960-05-27 12:00:00 TS -27.7000 161.200 main 747 745 O________OO___ jtwc_sh SH241960 -27.7000 161.200 -1 -27.7000 161.200 TC -27.7000 161.200 2 5 174
1960146S17153 1960 22 SP MM NOT_NAMED 1960-05-27 15:00:00 TS -27.9225 161.247 main 745 745 P________PP___ SH241960 -27.9425 161.250 -1 -27.9425 161.250 TC -27.8825 161.242 2 5 170
1960146S17153 1960 22 SP MM NOT_NAMED 1960-05-27 18:00:00 TS -28.1617 161.293 main 753 751 O________OP___ jtwc_sh SH241960 -28.2000 161.300 -1 -28.2000 161.300 TC -28.0850 161.279 2 5 171
1960146S17153 1960 22 SP MM NOT_NAMED 1960-05-27 21:00:00 TS -28.4117 161.333 main 751 751 P________PP___ SH241960 -28.4325 161.335 -1 -28.4325 161.335 TC -28.3700 161.327 2 6 172
1960146S17153 1960 22 SP MM NOT_NAMED 1960-05-28 00:00:00 TS -28.8000 161.400 main 758 757 O________OO___ jtwc_sh SH241960 -28.8000 161.400 -1 -28.8000 161.400 TC -28.8000 161.400 2 10 170
1960146S17153 1960 22 SP MM NOT_NAMED 1960-05-28 03:00:00 TS -29.4312 161.530 main 768 768 P________PP___ SH241960 -29.4101 161.535 -1 -29.4101 161.535 TC -29.4736 161.520 2 15 170
1960146S17153 1960 22 SP MM NOT_NAMED 1960-05-28 06:00:00 TS -30.2293 161.689 main 795 795 O________OP___ jtwc_sh SH241960 -30.2000 161.700 -1 -30.2000 161.700 TC -30.2878 161.668 2 17 171
1960146S17153 1960 22 SP MM NOT_NAMED 1960-05-28 09:00:00 TS -31.1194 161.844 main 823 823 P________PP___ SH241960 -31.1000 161.850 -1 -31.1000 161.850 TC -31.1581 161.833 2 18 171
1960146S17153 1960 22 SP MM NOT_NAMED 1960-05-28 12:00:00 TS -32.0000 162.000 main 847 847 O________OO___ jtwc_sh SH241960 -32.0000 162.000 -1 -32.0000 162.000 TC -32.0000 162.000 2 17 171
1960146S17153 1960 22 SP MM NOT_NAMED 1960-05-28 15:00:00 TS -32.7460 162.153 main 875 875 P________PP___ SH241960 -32.7449 162.150 -1 -32.7449 162.150 TC -32.7481 162.159 2 14 170
1960146S17153 1960 22 SP MM NOT_NAMED 1960-05-28 18:00:00 TS -33.4040 162.303 main 900 900 O________OP___ jtwc_sh SH241960 -33.4000 162.300 -1 -33.4000 162.300 TC -33.4121 162.310 2 13 169
1960146S17153 1960 22 SP MM NOT_NAMED 1960-05-28 21:00:00 TS -34.0134 162.452 main 927 913 P________PP___ SH241960 -34.0101 162.450 -1 -34.0101 162.450 TC -34.0200 162.456 2 12 168
1960146S17153 1960 22 SP MM NOT_NAMED 1960-05-29 00:00:00 TS -34.6000 162.600 main 913 O________OO___ jtwc_sh SH241960 -34.6000 162.600 -1 -34.6000 162.600 TC -34.6000 162.600 2 12 168

デジタル台風データ・検索

IBTrACS Databaseについて

本データベースは、米国NOAAが公開する1842年以降の世界の熱帯低気圧のベストトラックデータアーカイブInternational Best Track Archive for Climate Stewardship (IBTrACS)を、ウェブで閲覧しやすい形式に変換したものです。

最終更新日:2021-11-26